createdAt,value
2019-04-07T00:02:19.990Z,13.00
2019-04-07T00:04:50.632Z,13.00
2019-04-07T00:07:22.903Z,13.03
2019-04-07T00:09:55.867Z,13.04
2019-04-07T00:12:25.755Z,13.04
2019-04-07T00:14:56.211Z,13.09
2019-04-07T00:17:27.217Z,13.06
2019-04-07T00:19:58.317Z,13.14
2019-04-07T00:22:30.482Z,13.14
2019-04-07T00:25:02.474Z,13.09
2019-04-07T00:27:33.369Z,13.15
2019-04-07T00:30:04.031Z,13.14
2019-04-07T00:32:35.035Z,13.16
2019-04-07T00:35:06.059Z,13.11
2019-04-07T00:37:36.300Z,13.20
2019-04-07T00:40:07.031Z,13.20
2019-04-07T00:42:38.100Z,13.22
2019-04-07T00:45:08.863Z,13.26
2019-04-07T00:47:39.306Z,13.23
2019-04-07T00:50:09.472Z,13.30
2019-04-07T00:52:39.485Z,13.27
2019-04-07T00:55:10.191Z,13.23
2019-04-07T00:57:40.729Z,13.23
2019-04-07T01:00:12.221Z,13.24
2019-04-07T01:02:45.490Z,13.08
2019-04-07T01:05:15.483Z,13.15
2019-04-07T01:07:46.381Z,13.15
2019-04-07T01:10:17.396Z,13.22
2019-04-07T01:12:47.448Z,13.16
2019-04-07T01:15:17.698Z,13.18
2019-04-07T01:17:48.705Z,13.17
2019-04-07T01:20:19.809Z,13.17
2019-04-07T01:22:50.134Z,13.15
2019-04-07T01:25:20.321Z,13.15
2019-04-07T01:27:52.219Z,13.24
2019-04-07T01:30:22.940Z,13.18
2019-04-07T01:32:53.505Z,13.18
2019-04-07T01:35:24.786Z,13.19
2019-04-07T01:37:56.101Z,13.19
2019-04-07T01:40:28.845Z,13.09
2019-04-07T01:43:23.855Z,13.06
2019-04-07T01:46:17.516Z,13.15
2019-04-07T01:49:11.001Z,13.15
2019-04-07T01:51:50.870Z,13.08
2019-04-07T01:54:49.414Z,13.01
2019-04-07T01:57:38.685Z,13.01
2019-04-07T02:00:34.405Z,13.06
2019-04-07T02:03:18.833Z,12.95
2019-04-07T02:06:08.248Z,12.97
2019-04-07T02:09:01.739Z,12.97
2019-04-07T02:12:03.516Z,12.92
2019-04-07T02:14:51.145Z,12.95
2019-04-07T02:17:41.548Z,12.90
2019-04-07T02:21:07.096Z,12.85
2019-04-07T02:23:53.622Z,12.79
2019-04-07T02:26:31.933Z,12.79
2019-04-07T02:29:39.969Z,12.59
2019-04-07T02:32:27.836Z,12.52
2019-04-07T02:35:32.436Z,12.48
2019-04-07T02:38:17.085Z,12.27
2019-04-07T02:40:53.735Z,12.23
2019-04-07T02:43:46.570Z,12.23
2019-04-07T02:46:31.482Z,12.12
2019-04-07T02:49:24.161Z,12.14
2019-04-07T02:52:16.592Z,12.14
2019-04-07T02:55:09.692Z,11.91
2019-04-07T02:57:59.624Z,11.86
2019-04-07T03:00:39.727Z,11.86
2019-04-07T03:03:41.074Z,11.72
2019-04-07T03:06:47.667Z,11.72
2019-04-07T03:09:34.894Z,11.51
2019-04-07T03:12:18.966Z,11.49
2019-04-07T03:15:09.357Z,11.43
2019-04-07T03:18:01.762Z,11.43
2019-04-07T03:20:53.868Z,11.36
2019-04-07T03:23:44.420Z,11.32
2019-04-07T03:26:32.367Z,11.32
2019-04-07T03:29:14.847Z,11.19
2019-04-07T03:32:15.855Z,11.24
2019-04-07T03:35:15.976Z,11.14
2019-04-07T03:37:53.337Z,11.01
2019-04-07T03:40:42.947Z,11.01
2019-04-07T03:43:34.919Z,11.00
2019-04-07T03:46:17.162Z,10.93
2019-04-07T03:49:09.963Z,10.85
2019-04-07T03:51:49.905Z,10.83
2019-04-07T03:54:46.551Z,10.83
2019-04-07T03:57:44.591Z,10.76
2019-04-07T04:01:35.815Z,10.76
2019-04-07T04:04:30.034Z,10.72
2019-04-07T04:07:22.406Z,10.61
2019-04-07T04:10:09.805Z,10.58
2019-04-07T04:12:59.370Z,10.58
2019-04-07T04:15:54.731Z,10.64
2019-04-07T04:18:26.235Z,10.61
2019-04-07T04:20:57.169Z,10.62
2019-04-07T04:23:28.510Z,10.66
2019-04-07T04:25:59.070Z,10.64
2019-04-07T04:28:30.681Z,10.64
2019-04-07T04:31:00.948Z,10.70
2019-04-07T04:33:31.096Z,10.59
2019-04-07T04:36:03.047Z,10.64
2019-04-07T04:38:33.809Z,10.65
2019-04-07T04:41:04.837Z,10.60
2019-04-07T04:43:36.034Z,10.59
2019-04-07T04:46:09.415Z,10.53
2019-04-07T04:48:38.762Z,10.55
2019-04-07T04:51:09.753Z,10.51
2019-04-07T04:53:44.305Z,10.51
2019-04-07T04:56:16.872Z,10.48
2019-04-07T04:58:47.750Z,10.46
2019-04-07T05:01:19.428Z,10.41
2019-04-07T05:03:49.558Z,10.29
2019-04-07T05:06:20.981Z,10.29
2019-04-07T05:08:52.401Z,10.32
2019-04-07T05:11:22.528Z,10.27
2019-04-07T05:13:53.083Z,10.27
2019-04-07T05:16:24.495Z,10.31
2019-04-07T05:18:55.027Z,10.32
2019-04-07T05:21:25.177Z,10.29
2019-04-07T05:23:55.167Z,10.29
2019-04-07T05:26:26.491Z,10.37
2019-04-07T05:28:58.236Z,10.41
2019-04-07T05:31:28.509Z,10.45
2019-04-07T05:34:00.298Z,10.49
2019-04-07T05:36:36.949Z,10.53
2019-04-07T05:39:08.652Z,10.57
2019-04-07T05:41:39.288Z,10.65
2019-04-07T05:44:11.390Z,10.68
2019-04-07T05:46:42.607Z,10.68
2019-04-07T05:49:15.784Z,10.85
2019-04-07T05:51:45.144Z,10.95
2019-04-07T05:54:18.080Z,11.01
2019-04-07T05:56:47.532Z,11.06
2019-04-07T05:59:17.974Z,11.10
2019-04-07T06:01:51.599Z,11.16
2019-04-07T06:04:21.736Z,11.28
2019-04-07T06:06:55.077Z,11.28
2019-04-07T06:09:24.179Z,11.42
2019-04-07T06:11:54.472Z,11.46
2019-04-07T06:14:24.494Z,11.51
2019-04-07T06:16:55.809Z,11.56
2019-04-07T06:19:27.905Z,11.61
2019-04-07T06:21:58.064Z,11.69
2019-04-07T06:24:31.608Z,11.69
2019-04-07T06:27:00.798Z,11.85
2019-04-07T06:29:31.118Z,11.85
2019-04-07T06:32:03.679Z,12.02
2019-04-07T06:34:33.795Z,12.02
2019-04-07T06:37:04.526Z,12.15
2019-04-07T06:39:35.204Z,12.21
2019-04-07T06:42:05.880Z,12.24
2019-04-07T06:44:38.548Z,12.40
2019-04-07T06:47:22.066Z,12.54
2019-04-07T06:50:09.708Z,12.58
2019-04-07T06:53:02.232Z,12.58
2019-04-07T06:55:58.454Z,12.80
2019-04-07T06:58:49.208Z,12.80
2019-04-07T07:01:29.735Z,12.91
2019-04-07T07:04:17.959Z,13.01
2019-04-07T07:07:13.029Z,13.01
2019-04-07T07:10:25.763Z,13.18
2019-04-07T07:13:09.454Z,13.18
2019-04-07T07:15:41.784Z,13.29
2019-04-07T07:18:30.638Z,13.38
2019-04-07T07:21:20.189Z,13.53
2019-04-07T07:23:50.545Z,13.53
2019-04-07T07:26:21.887Z,13.55
2019-04-07T07:28:53.006Z,13.66
2019-04-07T07:31:25.793Z,13.70
2019-04-07T07:34:09.308Z,13.77
2019-04-07T07:36:38.334Z,13.99
2019-04-07T07:39:11.794Z,13.99
2019-04-07T07:41:40.994Z,13.99
2019-04-07T07:44:10.956Z,14.02
2019-04-07T07:46:42.164Z,13.99
2019-04-07T07:49:12.472Z,14.19
2019-04-07T07:51:45.063Z,14.19
2019-04-07T07:54:15.068Z,14.32
2019-04-07T07:56:49.386Z,14.32
2019-04-07T07:59:17.804Z,14.33
2019-04-07T08:01:50.299Z,14.39
2019-04-07T08:04:20.731Z,14.39
2019-04-07T08:06:51.280Z,14.50
2019-04-07T08:09:24.965Z,14.64
2019-04-07T08:11:54.362Z,14.64
2019-04-07T08:14:24.497Z,14.59
2019-04-07T08:17:00.188Z,14.68
2019-04-07T08:19:30.524Z,14.68
2019-04-07T08:22:01.761Z,14.91
2019-04-07T08:24:32.717Z,14.91
2019-04-07T08:27:07.363Z,15.04
2019-04-07T08:29:39.564Z,15.04
2019-04-07T08:32:09.012Z,15.16
2019-04-07T08:34:39.253Z,15.06
2019-04-07T08:37:13.907Z,15.08
2019-04-07T08:39:42.176Z,15.24
2019-04-07T08:42:17.509Z,15.24
2019-04-07T08:44:46.254Z,15.20
2019-04-07T08:47:20.008Z,15.22
2019-04-07T08:49:48.249Z,15.40
2019-04-07T08:52:18.523Z,15.56
2019-04-07T08:54:52.178Z,15.62
2019-04-07T08:57:21.385Z,15.68
2019-04-07T08:59:51.690Z,15.78
2019-04-07T09:02:24.481Z,15.78
2019-04-07T09:04:53.537Z,15.75
2019-04-07T09:07:26.634Z,15.91
2019-04-07T09:10:04.547Z,15.91
2019-04-07T09:12:38.101Z,15.91
2019-04-07T09:15:11.816Z,15.92
2019-04-07T09:17:49.639Z,16.15
2019-04-07T09:20:46.135Z,16.29
2019-04-07T09:23:42.591Z,16.18
2019-04-07T09:26:30.323Z,16.18
2019-04-07T09:29:07.304Z,16.31
2019-04-07T09:32:05.431Z,16.31
2019-04-07T09:34:54.017Z,16.44
2019-04-07T09:37:53.322Z,16.49
2019-04-07T09:40:42.429Z,16.79
2019-04-07T09:43:26.184Z,16.79
2019-04-07T09:46:14.711Z,16.80
2019-04-07T09:49:15.767Z,17.05
2019-04-07T09:52:23.943Z,17.02
2019-04-07T09:55:08.318Z,17.17
2019-04-07T09:57:53.865Z,17.17
2019-04-07T10:00:35.223Z,17.24
2019-04-07T10:03:14.852Z,17.24
2019-04-07T10:06:11.150Z,17.30
2019-04-07T10:09:13.012Z,17.30
2019-04-07T10:11:55.385Z,17.29
2019-04-07T10:14:35.057Z,17.62
2019-04-07T10:17:24.298Z,17.62
2019-04-07T10:20:16.390Z,17.82
2019-04-07T10:23:08.026Z,17.82
2019-04-07T10:26:15.749Z,17.73
2019-04-07T10:29:11.028Z,17.88
2019-04-07T10:32:15.126Z,17.76
2019-04-07T10:35:19.304Z,17.76
2019-04-07T10:38:17.503Z,17.68
2019-04-07T10:41:06.796Z,17.72
2019-04-07T10:43:52.961Z,17.85
2019-04-07T10:46:31.533Z,17.85
2019-04-07T10:49:22.707Z,18.01
2019-04-07T10:52:21.445Z,18.01
2019-04-07T10:55:05.092Z,18.02
2019-04-07T10:57:43.631Z,18.02
2019-04-07T11:00:30.265Z,18.19
2019-04-07T11:03:33.000Z,18.09
2019-04-07T11:06:20.540Z,18.09
2019-04-07T11:09:13.869Z,18.33
2019-04-07T11:12:03.266Z,18.37
2019-04-07T11:14:50.149Z,18.37
2019-04-07T11:17:33.829Z,18.37
2019-04-07T11:20:13.228Z,18.42
2019-04-07T11:23:01.984Z,18.43
2019-04-07T11:25:51.142Z,18.47
2019-04-07T11:28:29.505Z,18.40
2019-04-07T11:31:19.787Z,18.40
2019-04-07T11:34:07.199Z,18.65
2019-04-07T11:37:04.954Z,18.73
2019-04-07T11:39:55.370Z,18.83
2019-04-07T11:42:44.777Z,18.79
2019-04-07T11:45:37.780Z,18.98
2019-04-07T11:48:29.507Z,18.95
2019-04-07T11:51:22.690Z,18.95
2019-04-07T11:57:27.066Z,18.84
2019-04-07T12:00:49.074Z,18.76
2019-04-07T12:03:57.146Z,18.74
2019-04-07T12:06:49.825Z,18.59
2019-04-07T12:09:30.511Z,18.66
2019-04-07T12:12:20.149Z,18.66
2019-04-07T12:15:04.227Z,18.73
2019-04-07T12:17:59.258Z,18.73
2019-04-07T12:20:44.001Z,18.82
2019-04-07T12:23:53.374Z,18.97
2019-04-07T12:26:45.195Z,19.12
2019-04-07T12:29:40.146Z,19.12
2019-04-07T12:32:27.681Z,19.17
2019-04-07T12:35:20.329Z,18.71
2019-04-07T12:38:13.507Z,18.73
2019-04-07T12:41:13.470Z,18.73
2019-04-07T12:44:08.015Z,18.88
2019-04-07T12:46:58.338Z,18.88
2019-04-07T12:49:50.650Z,18.74
2019-04-07T12:52:48.481Z,18.43
2019-04-07T12:55:37.203Z,18.16
2019-04-07T12:58:24.560Z,18.16
2019-04-07T13:01:19.332Z,18.31
2019-04-07T13:03:54.741Z,18.42
2019-04-07T13:06:45.232Z,18.43
2019-04-07T13:09:34.673Z,18.10
2019-04-07T13:12:24.751Z,18.22
2019-04-07T13:15:14.170Z,18.25
2019-04-07T13:17:57.428Z,18.25
2019-04-07T13:20:38.616Z,18.69
2019-04-07T13:23:29.775Z,18.69
2019-04-07T13:26:19.147Z,18.77
2019-04-07T13:29:01.922Z,18.77
2019-04-07T13:31:50.455Z,18.98
2019-04-07T13:34:46.177Z,19.16
2019-04-07T13:37:32.776Z,19.15
2019-04-07T13:40:21.814Z,19.72
2019-04-07T13:43:11.152Z,19.94
2019-04-07T13:45:53.903Z,19.92
2019-04-07T13:49:02.830Z,19.92
2019-04-07T13:51:45.786Z,19.97
2019-04-07T13:54:37.167Z,20.32
2019-04-07T13:57:27.611Z,20.32
2019-04-07T14:00:26.349Z,20.30
2019-04-07T14:03:23.359Z,20.30
2019-04-07T14:06:18.186Z,20.57
2019-04-07T14:09:04.405Z,20.22
2019-04-07T14:12:04.896Z,20.42
2019-04-07T14:14:43.731Z,20.42
2019-04-07T14:17:31.883Z,20.75
2019-04-07T14:20:08.945Z,20.75
2019-04-07T14:23:07.379Z,20.79
2019-04-07T14:25:59.959Z,20.98
2019-04-07T14:29:03.065Z,20.63
2019-04-07T14:31:59.448Z,20.80
2019-04-07T14:34:49.827Z,20.51
2019-04-07T14:37:36.222Z,20.51
2019-04-07T14:40:17.283Z,20.05
2019-04-07T14:43:05.248Z,20.05
2019-04-07T14:45:48.468Z,19.69
2019-04-07T14:48:34.790Z,20.00
2019-04-07T14:51:26.637Z,19.85
2019-04-07T14:54:06.673Z,19.85
2019-04-07T14:56:59.368Z,19.88
2019-04-07T14:59:43.903Z,20.07
2019-04-07T15:02:15.616Z,20.00
2019-04-07T15:04:54.346Z,20.00
2019-04-07T15:07:44.004Z,20.17
2019-04-07T15:10:30.805Z,20.17
2019-04-07T15:13:05.229Z,20.12
2019-04-07T15:15:39.979Z,20.12
2019-04-07T15:18:10.002Z,20.10
2019-04-07T15:20:42.832Z,20.18
2019-04-07T15:23:14.810Z,20.17
2019-04-07T15:25:46.428Z,19.97
2019-04-07T15:28:17.499Z,19.97
2019-04-07T15:30:49.137Z,20.30
2019-04-07T15:33:22.547Z,20.39
2019-04-07T15:35:53.438Z,20.39
2019-04-07T15:38:27.183Z,20.56
2019-04-07T15:40:59.647Z,20.65
2019-04-07T15:43:34.917Z,20.61
2019-04-07T15:46:03.853Z,20.61
2019-04-07T15:48:34.165Z,20.50
2019-04-07T15:51:04.932Z,20.50
2019-04-07T15:53:34.920Z,20.68
2019-04-07T15:56:06.485Z,20.43
2019-04-07T15:58:38.689Z,20.53
2019-04-07T16:01:11.793Z,20.53
2019-04-07T16:03:42.111Z,20.74
2019-04-07T16:06:15.300Z,20.74
2019-04-07T16:08:43.680Z,20.94
2019-04-07T16:11:13.625Z,20.94
2019-04-07T16:13:44.368Z,21.00
2019-04-07T16:16:14.600Z,20.76
2019-04-07T16:18:45.431Z,20.81
2019-04-07T16:21:18.041Z,21.13
2019-04-07T16:23:50.232Z,20.70
2019-04-07T16:26:20.149Z,20.35
2019-04-07T16:28:50.088Z,20.35
2019-04-07T16:31:24.286Z,20.51
2019-04-07T16:33:52.937Z,20.25
2019-04-07T16:36:25.394Z,20.25
2019-04-07T16:38:55.066Z,20.11
2019-04-07T16:41:25.892Z,19.73
2019-04-07T16:43:55.969Z,19.80
2019-04-07T16:46:26.015Z,19.54
2019-04-07T16:48:58.472Z,19.27
2019-04-07T16:51:31.649Z,19.27
2019-04-07T16:54:03.435Z,19.11
2019-04-07T16:56:33.458Z,18.75
2019-04-07T16:59:04.218Z,18.75
2019-04-07T17:01:37.854Z,18.74
2019-04-07T17:04:09.391Z,18.84
2019-04-07T17:06:40.187Z,18.98
2019-04-07T17:09:18.203Z,18.79
2019-04-07T17:11:48.309Z,18.79
2019-04-07T17:14:18.877Z,18.52
2019-04-07T17:16:48.906Z,18.33
2019-04-07T17:19:19.885Z,18.16
2019-04-07T17:21:56.440Z,18.26
2019-04-07T17:24:30.361Z,18.12
2019-04-07T17:27:03.117Z,17.89
2019-04-07T17:29:35.612Z,17.65
2019-04-07T17:32:06.390Z,17.64
2019-04-07T17:34:36.871Z,17.58
2019-04-07T17:37:07.777Z,17.57
2019-04-07T17:39:46.616Z,17.67
2019-04-07T17:42:18.408Z,17.54
2019-04-07T17:45:27.530Z,17.52
2019-04-07T17:48:14.906Z,17.58
2019-04-07T17:51:16.654Z,17.45
2019-04-07T17:53:57.704Z,17.43
2019-04-07T17:56:35.773Z,17.24
2019-04-07T17:59:24.821Z,17.08
2019-04-07T18:02:11.822Z,16.93
2019-04-07T18:04:53.714Z,16.93
2019-04-07T18:07:43.467Z,16.78
2019-04-07T18:10:35.231Z,16.69
2019-04-07T18:13:24.741Z,16.52
2019-04-07T18:16:18.375Z,16.47
2019-04-07T18:19:08.677Z,16.47
2019-04-07T18:22:18.245Z,16.34
2019-04-07T18:24:55.279Z,16.34
2019-04-07T18:27:33.276Z,16.13
2019-04-07T18:30:31.526Z,16.14
2019-04-07T18:33:20.689Z,16.14
2019-04-07T18:36:07.912Z,16.04
2019-04-07T18:39:17.337Z,15.96
2019-04-07T18:42:10.282Z,15.91
2019-04-07T18:44:59.566Z,15.91
2019-04-07T18:48:04.508Z,15.87
2019-04-07T18:50:53.294Z,15.73
2019-04-07T18:53:45.378Z,15.73
2019-04-07T18:56:34.554Z,15.60
2019-04-07T18:59:29.411Z,15.60
2019-04-07T19:02:17.156Z,15.50
2019-04-07T19:05:08.747Z,15.47
2019-04-07T19:08:05.998Z,15.32
2019-04-07T19:11:17.020Z,15.31
2019-04-07T19:14:14.268Z,15.31
2019-04-07T19:16:50.267Z,15.16
2019-04-07T19:19:47.139Z,15.05
2019-04-07T19:22:36.651Z,15.05
2019-04-07T19:25:24.651Z,14.92
2019-04-07T19:28:06.000Z,14.84
2019-04-07T19:30:47.511Z,14.70
2019-04-07T19:33:35.989Z,14.64
2019-04-07T19:36:24.406Z,14.64
2019-04-07T19:39:11.409Z,14.59
2019-04-07T19:42:14.353Z,14.46
2019-04-07T19:45:07.067Z,14.35
2019-04-07T19:48:11.924Z,14.29
2019-04-07T19:50:59.982Z,14.23
2019-04-07T19:53:56.189Z,14.19
2019-04-07T19:56:48.381Z,14.19
2019-04-07T19:59:42.667Z,14.09
2019-04-07T20:02:39.063Z,13.89
2019-04-07T20:05:27.263Z,13.80
2019-04-07T20:08:14.689Z,13.71
2019-04-07T20:10:57.172Z,13.71
2019-04-07T20:13:49.458Z,13.65
2019-04-07T20:16:47.385Z,13.53
2019-04-07T20:19:41.135Z,13.53
2019-04-07T20:22:28.747Z,13.47
2019-04-07T20:25:33.271Z,13.39
2019-04-07T20:28:30.437Z,13.30
2019-04-07T20:31:19.404Z,13.30
2019-04-07T20:34:02.171Z,13.20
2019-04-07T20:36:51.750Z,13.18
2019-04-07T20:39:47.796Z,13.12
2019-04-07T20:42:31.148Z,13.15
2019-04-07T20:45:19.268Z,13.12
2019-04-07T20:48:05.555Z,13.08
2019-04-07T20:51:12.914Z,13.08
2019-04-07T20:54:21.610Z,13.08
2019-04-07T20:57:09.298Z,12.94
2019-04-07T20:59:51.202Z,12.94
2019-04-07T21:02:37.742Z,12.99
2019-04-07T21:05:36.084Z,12.93
2019-04-07T21:08:20.093Z,12.81
2019-04-07T21:11:22.180Z,12.78
2019-04-07T21:14:19.092Z,12.78
2019-04-07T21:17:11.025Z,12.65
2019-04-07T21:19:59.169Z,12.65
2019-04-07T21:22:36.978Z,12.54
2019-04-07T21:25:16.808Z,12.55
2019-04-07T21:28:09.036Z,12.50
2019-04-07T21:30:59.175Z,12.50
2019-04-07T21:34:00.178Z,12.48
2019-04-07T21:36:45.216Z,12.43
2019-04-07T21:39:30.473Z,12.46
2019-04-07T21:42:23.207Z,12.46
2019-04-07T21:45:11.938Z,12.38
2019-04-07T21:47:53.135Z,12.40
2019-04-07T21:50:44.832Z,12.40
2019-04-07T21:53:30.402Z,12.40
2019-04-07T21:56:43.151Z,12.43
2019-04-07T21:59:39.690Z,12.38
2019-04-07T22:02:29.309Z,12.36
2019-04-07T22:05:15.651Z,12.36
2019-04-07T22:07:54.268Z,12.36
2019-04-07T22:10:24.317Z,12.35
2019-04-07T22:13:03.361Z,12.31
2019-04-07T22:15:42.149Z,12.34
2019-04-07T22:18:01.320Z,12.34
2019-04-07T22:20:31.397Z,12.29
2019-04-07T22:23:02.894Z,12.29
2019-04-07T22:25:33.525Z,12.27
2019-04-07T22:28:03.487Z,12.25
2019-04-07T22:30:34.040Z,12.24
2019-04-07T22:33:09.143Z,12.24
2019-04-07T22:35:41.751Z,12.17
2019-04-07T22:38:11.397Z,12.17
2019-04-07T22:40:41.657Z,12.17
2019-04-07T22:43:11.686Z,12.16
2019-04-07T22:45:52.715Z,12.15
2019-04-07T22:48:14.147Z,12.14
2019-04-07T22:50:44.319Z,12.10
2019-04-07T22:53:14.222Z,12.06
2019-04-07T22:55:44.389Z,12.06
2019-04-07T22:58:14.270Z,12.06
2019-04-07T23:00:44.615Z,12.04
2019-04-07T23:03:15.555Z,12.04
2019-04-07T23:05:47.009Z,11.97
2019-04-07T23:08:17.375Z,11.98
2019-04-07T23:10:47.904Z,12.00
2019-04-07T23:13:18.470Z,12.00
2019-04-07T23:15:48.654Z,11.93
2019-04-07T23:18:18.659Z,11.93
2019-04-07T23:20:49.165Z,11.85
2019-04-07T23:23:19.144Z,11.93
2019-04-07T23:25:48.942Z,11.88
2019-04-07T23:28:18.925Z,11.88
2019-04-07T23:30:49.215Z,11.90
2019-04-07T23:33:20.148Z,11.86
2019-04-07T23:35:50.038Z,11.86
2019-04-07T23:38:19.850Z,11.89
2019-04-07T23:40:49.874Z,11.90
2019-04-07T23:43:19.961Z,11.84
2019-04-07T23:45:49.882Z,11.73
2019-04-07T23:48:20.038Z,11.83
2019-04-07T23:50:50.165Z,11.83
2019-04-07T23:53:55.870Z,11.68
2019-04-07T23:56:26.159Z,11.68
2019-04-07T23:58:56.279Z,11.75
